Terminal Aerodrome Forecast
Issued by NWS Burlington, VT

Home | Current Version | Previous Version | Text Only | Print | Product List | Glossary On
Versions: 1 2 3 4 5 6 7 8 9 10 11 12 13 14 15
000
FTUS41 KBTV 311720
TAFBTV
TAF
KBTV 311720Z 3118/0118 28011G18KT P6SM FEW250
     FM312100 32012KT P6SM BKN050
     FM010100 34005KT P6SM SCT040
     FM010900 35004KT P6SM FEW250=

USA.gov is the U.S. government's official web portal to all federal, state and local government web resources and services.